sensor_id;sensor_type;location;lat;lon;timestamp;pressure;altitude;pressure_sealevel;temperature;humidity
34921;BME280;21128;50.016;20.002;2022-11-02T00:02:04;99282.92;;;10.62;100.00
34921;BME280;21128;50.016;20.002;2022-11-02T00:04:31;99280.02;;;10.65;100.00
34921;BME280;21128;50.016;20.002;2022-11-02T00:06:58;99287.38;;;10.71;100.00
34921;BME280;21128;50.016;20.002;2022-11-02T00:09:25;99285.45;;;10.73;100.00
34921;BME280;21128;50.016;20.002;2022-11-02T00:11:51;99279.92;;;10.76;100.00
34921;BME280;21128;50.016;20.002;2022-11-02T00:14:18;99275.25;;;10.80;100.00
34921;BME280;21128;50.016;20.002;2022-11-02T00:16:45;99278.56;;;10.82;100.00
34921;BME280;21128;50.016;20.002;2022-11-02T00:19:12;99274.00;;;10.84;100.00
34921;BME280;21128;50.016;20.002;2022-11-02T00:21:39;99268.63;;;10.85;100.00
34921;BME280;21128;50.016;20.002;2022-11-02T00:24:07;99273.61;;;10.88;100.00
34921;BME280;21128;50.016;20.002;2022-11-02T00:26:48;99267.52;;;10.88;100.00
34921;BME280;21128;50.016;20.002;2022-11-02T00:29:15;99271.13;;;10.87;100.00
34921;BME280;21128;50.016;20.002;2022-11-02T00:31:42;99266.84;;;10.86;100.00
34921;BME280;21128;50.016;20.002;2022-11-02T00:34:22;99274.97;;;10.83;100.00
34921;BME280;21128;50.016;20.002;2022-11-02T00:36:49;99274.28;;;10.81;100.00
34921;BME280;21128;50.016;20.002;2022-11-02T00:39:23;99274.14;;;10.82;100.00
34921;BME280;21128;50.016;20.002;2022-11-02T00:41:50;99279.39;;;10.82;100.00
34921;BME280;21128;50.016;20.002;2022-11-02T00:44:17;99281.05;;;10.83;100.00
34921;BME280;21128;50.016;20.002;2022-11-02T00:46:51;99273.17;;;10.83;100.00
34921;BME280;21128;50.016;20.002;2022-11-02T00:49:18;99276.52;;;10.85;100.00
34921;BME280;21128;50.016;20.002;2022-11-02T00:51:45;99282.47;;;10.87;100.00
34921;BME280;21128;50.016;20.002;2022-11-02T00:54:12;99276.24;;;10.88;100.00
34921;BME280;21128;50.016;20.002;2022-11-02T00:56:39;99276.94;;;10.90;100.00
34921;BME280;21128;50.016;20.002;2022-11-02T00:59:06;99274.89;;;10.94;100.00
34921;BME280;21128;50.016;20.002;2022-11-02T01:01:39;99281.67;;;10.96;100.00
34921;BME280;21128;50.016;20.002;2022-11-02T01:04:06;99278.06;;;10.97;100.00
34921;BME280;21128;50.016;20.002;2022-11-02T01:06:33;99279.73;;;10.98;100.00
34921;BME280;21128;50.016;20.002;2022-11-02T01:09:01;99281.39;;;10.99;100.00
34921;BME280;21128;50.016;20.002;2022-11-02T01:11:27;99286.64;;;10.99;100.00
34921;BME280;21128;50.016;20.002;2022-11-02T01:13:54;99275.30;;;10.99;100.00
34921;BME280;21128;50.016;20.002;2022-11-02T01:16:21;99275.05;;;11.02;100.00
34921;BME280;21128;50.016;20.002;2022-11-02T01:18:55;99281.97;;;11.03;100.00
34921;BME280;21128;50.016;20.002;2022-11-02T01:21:22;99280.03;;;11.05;100.00
34921;BME280;21128;50.016;20.002;2022-11-02T01:23:50;99278.09;;;11.07;100.00
34921;BME280;21128;50.016;20.002;2022-11-02T01:26:29;99277.27;;;11.07;100.00
34921;BME280;21128;50.016;20.002;2022-11-02T01:28:56;99259.55;;;11.09;100.00
34921;BME280;21128;50.016;20.002;2022-11-02T01:31:23;99267.43;;;11.09;100.00
34921;BME280;21128;50.016;20.002;2022-11-02T01:33:49;99271.72;;;11.10;100.00
34921;BME280;21128;50.016;20.002;2022-11-02T01:36:23;99266.46;;;11.10;100.00
34921;BME280;21128;50.016;20.002;2022-11-02T01:38:50;99269.81;;;11.12;100.00
34921;BME280;21128;50.016;20.002;2022-11-02T01:41:24;99270.64;;;11.12;100.00
34921;BME280;21128;50.016;20.002;2022-11-02T01:43:56;99268.84;;;11.13;100.00
34921;BME280;21128;50.016;20.002;2022-11-02T01:46:37;99272.30;;;11.13;100.00
34921;BME280;21128;50.016;20.002;2022-11-02T01:49:14;99268.56;;;11.16;100.00
34921;BME280;21128;50.016;20.002;2022-11-02T01:51:53;99264.96;;;11.17;100.00
34921;BME280;21128;50.016;20.002;2022-11-02T01:54:29;99265.93;;;11.16;100.00
34921;BME280;21128;50.016;20.002;2022-11-02T01:57:04;99263.98;;;11.18;100.00
34921;BME280;21128;50.016;20.002;2022-11-02T01:59:42;99277.28;;;11.16;100.00
34921;BME280;21128;50.016;20.002;2022-11-02T02:02:20;99266.90;;;11.15;100.00
34921;BME280;21128;50.016;20.002;2022-11-02T02:05:01;99269.53;;;11.15;100.00
34921;BME280;21128;50.016;20.002;2022-11-02T02:07:29;99279.08;;;11.16;100.00
34921;BME280;21128;50.016;20.002;2022-11-02T02:09:57;99275.63;;;11.15;100.00
34921;BME280;21128;50.016;20.002;2022-11-02T02:12:26;99274.79;;;11.15;100.00
34921;BME280;21128;50.016;20.002;2022-11-02T02:14:55;99278.39;;;11.14;100.00
34921;BME280;21128;50.016;20.002;2022-11-02T02:26:58;99284.60;;;11.03;100.00
34921;BME280;21128;50.016;20.002;2022-11-02T02:32:26;99282.88;;;10.92;100.00
34921;BME280;21128;50.016;20.002;2022-11-02T02:37:53;99285.48;;;10.83;100.00
34921;BME280;21128;50.016;20.002;2022-11-02T02:43:09;99287.11;;;10.74;100.00
34921;BME280;21128;50.016;20.002;2022-11-02T02:45:49;99283.92;;;10.70;100.00
34921;BME280;21128;50.016;20.002;2022-11-02T02:48:20;99287.66;;;10.68;100.00
34921;BME280;21128;50.016;20.002;2022-11-02T02:50:58;99288.88;;;10.64;100.00
34921;BME280;21128;50.016;20.002;2022-11-02T02:53:34;99292.60;;;10.61;100.00
34921;BME280;21128;50.016;20.002;2022-11-02T02:56:03;99302.53;;;10.58;100.00
34921;BME280;21128;50.016;20.002;2022-11-02T02:58:37;99303.77;;;10.54;100.00
34921;BME280;21128;50.016;20.002;2022-11-02T03:01:10;99296.12;;;10.51;100.00
34921;BME280;21128;50.016;20.002;2022-11-02T03:03:43;99306.08;;;10.47;100.00
34921;BME280;21128;50.016;20.002;2022-11-02T03:06:33;99301.09;;;10.44;100.00
34921;BME280;21128;50.016;20.002;2022-11-02T03:14:48;99315.24;;;10.32;100.00
34921;BME280;21128;50.016;20.002;2022-11-02T03:17:31;99318.14;;;10.29;100.00
34921;BME280;21128;50.016;20.002;2022-11-02T03:20:08;99323.52;;;10.27;100.00
34921;BME280;21128;50.016;20.002;2022-11-02T03:34:36;99327.12;;;10.15;100.00
34921;BME280;21128;50.016;20.002;2022-11-02T03:37:14;99324.77;;;10.12;100.00
34921;BME280;21128;50.016;20.002;2022-11-02T03:39:48;99323.23;;;10.09;100.00
34921;BME280;21128;50.016;20.002;2022-11-02T03:42:25;99311.30;;;10.05;100.00
34921;BME280;21128;50.016;20.002;2022-11-02T03:45:06;99320.27;;;10.03;100.00
34921;BME280;21128;50.016;20.002;2022-11-02T03:47:35;99315.86;;;10.03;100.00
34921;BME280;21128;50.016;20.002;2022-11-02T03:50:06;99320.41;;;10.01;100.00
34921;BME280;21128;50.016;20.002;2022-11-02T03:52:43;99325.76;;;10.00;100.00
34921;BME280;21128;50.016;20.002;2022-11-02T03:55:17;99321.47;;;9.99;100.00
34921;BME280;21128;50.016;20.002;2022-11-02T03:57:46;99326.98;;;9.96;100.00
34921;BME280;21128;50.016;20.002;2022-11-02T04:00:19;99330.80;;;9.92;100.00
34921;BME280;21128;50.016;20.002;2022-11-02T04:02:50;99328.44;;;9.88;100.00
34921;BME280;21128;50.016;20.002;2022-11-02T04:05:18;99335.75;;;9.85;100.00
34921;BME280;21128;50.016;20.002;2022-11-02T04:07:49;99336.81;;;9.82;100.00
34921;BME280;21128;50.016;20.002;2022-11-02T04:10:36;99337.07;;;9.79;100.00
34921;BME280;21128;50.016;20.002;2022-11-02T04:13:25;99341.48;;;9.79;100.00
34921;BME280;21128;50.016;20.002;2022-11-02T04:16:11;99352.12;;;9.77;100.00
34921;BME280;21128;50.016;20.002;2022-11-02T04:18:38;99343.64;;;9.74;100.00
34921;BME280;21128;50.016;20.002;2022-11-02T04:21:24;99350.94;;;9.70;100.00
34921;BME280;21128;50.016;20.002;2022-11-02T04:23:51;99353.83;;;9.67;100.00
34921;BME280;21128;50.016;20.002;2022-11-02T04:26:38;99346.88;;;9.66;100.00
34921;BME280;21128;50.016;20.002;2022-11-02T04:29:14;99337.22;;;9.67;100.00
34921;BME280;21128;50.016;20.002;2022-11-02T04:31:41;99347.71;;;9.67;100.00
34921;BME280;21128;50.016;20.002;2022-11-02T04:34:07;99347.62;;;9.68;100.00
34921;BME280;21128;50.016;20.002;2022-11-02T04:36:34;99338.91;;;9.68;100.00
34921;BME280;21128;50.016;20.002;2022-11-02T04:39:03;99347.62;;;9.68;100.00
34921;BME280;21128;50.016;20.002;2022-11-02T04:41:29;99347.48;;;9.70;100.00
34921;BME280;21128;50.016;20.002;2022-11-02T04:44:15;99355.23;;;9.71;100.00
34921;BME280;21128;50.016;20.002;2022-11-02T04:46:43;99349.98;;;9.71;100.00
34921;BME280;21128;50.016;20.002;2022-11-02T04:49:11;99349.15;;;9.71;100.00
34921;BME280;21128;50.016;20.002;2022-11-02T04:51:44;99355.93;;;9.73;100.00
34921;BME280;21128;50.016;20.002;2022-11-02T04:54:11;99356.66;;;9.75;100.00
34921;BME280;21128;50.016;20.002;2022-11-02T04:56:38;99358.20;;;9.78;100.00
34921;BME280;21128;50.016;20.002;2022-11-02T04:59:05;99359.03;;;9.78;100.00
34921;BME280;21128;50.016;20.002;2022-11-02T05:01:31;99358.06;;;9.79;100.00
34921;BME280;21128;50.016;20.002;2022-11-02T05:03:58;99366.64;;;9.81;100.00
34921;BME280;21128;50.016;20.002;2022-11-02T05:06:31;99356.84;;;9.83;100.00
34921;BME280;21128;50.016;20.002;2022-11-02T05:08:58;99363.79;;;9.84;100.00
34921;BME280;21128;50.016;20.002;2022-11-02T05:11:25;99362.70;;;9.87;100.00
34921;BME280;21128;50.016;20.002;2022-11-02T05:13:52;99355.66;;;9.87;100.00
34921;BME280;21128;50.016;20.002;2022-11-02T05:16:25;99347.78;;;9.87;100.00
34921;BME280;21128;50.016;20.002;2022-11-02T05:18:52;99352.90;;;9.89;100.00
34921;BME280;21128;50.016;20.002;2022-11-02T05:21:19;99354.56;;;9.90;100.00
34921;BME280;21128;50.016;20.002;2022-11-02T05:23:46;99359.81;;;9.90;100.00
34921;BME280;21128;50.016;20.002;2022-11-02T05:26:13;99369.48;;;9.90;100.00
34921;BME280;21128;50.016;20.002;2022-11-02T05:28:48;99374.98;;;9.86;100.00
34921;BME280;21128;50.016;20.002;2022-11-02T05:31:18;99374.29;;;9.84;100.00
34921;BME280;21128;50.016;20.002;2022-11-02T05:33:45;99369.88;;;9.85;100.00
34921;BME280;21128;50.016;20.002;2022-11-02T05:36:18;99374.16;;;9.86;100.00
34921;BME280;21128;50.016;20.002;2022-11-02T05:38:45;99374.86;;;9.88;100.00
34921;BME280;21128;50.016;20.002;2022-11-02T05:41:12;99371.41;;;9.87;100.00
34921;BME280;21128;50.016;20.002;2022-11-02T05:43:39;99377.48;;;9.88;100.00
34921;BME280;21128;50.016;20.002;2022-11-02T05:46:06;99378.31;;;9.88;100.00
34921;BME280;21128;50.016;20.002;2022-11-02T05:48:33;99378.19;;;9.90;100.00
34921;BME280;21128;50.016;20.002;2022-11-02T05:51:01;99378.79;;;9.94;100.00
34921;BME280;21128;50.016;20.002;2022-11-02T05:53:30;99381.28;;;9.95;100.00
34921;BME280;21128;50.016;20.002;2022-11-02T05:56:00;99383.08;;;9.95;100.00
34921;BME280;21128;50.016;20.002;2022-11-02T05:58:28;99387.37;;;9.96;100.00
34921;BME280;21128;50.016;20.002;2022-11-02T06:01:03;99391.66;;;9.97;100.00
34921;BME280;21128;50.016;20.002;2022-11-02T06:03:31;99396.64;;;10.00;100.00
34921;BME280;21128;50.016;20.002;2022-11-02T06:06:00;99387.84;;;10.01;100.00
34921;BME280;21128;50.016;20.002;2022-11-02T06:08:33;99388.54;;;10.03;100.00
34921;BME280;21128;50.016;20.002;2022-11-02T06:11:07;99387.31;;;10.07;100.00
34921;BME280;21128;50.016;20.002;2022-11-02T06:13:35;99388.05;;;10.09;100.00
34921;BME280;21128;50.016;20.002;2022-11-02T06:16:04;99392.07;;;10.13;100.00
34921;BME280;21128;50.016;20.002;2022-11-02T06:18:31;99397.06;;;10.16;100.00
34921;BME280;21128;50.016;20.002;2022-11-02T06:20:58;99397.66;;;10.20;100.00
34921;BME280;21128;50.016;20.002;2022-11-02T06:23:27;99389.42;;;10.24;100.00
34921;BME280;21128;50.016;20.002;2022-11-02T06:25:56;99389.19;;;10.27;100.00
34921;BME280;21128;50.016;20.002;2022-11-02T06:28:30;99399.99;;;10.34;100.00
34921;BME280;21128;50.016;20.002;2022-11-02T06:30:56;99400.80;;;10.46;100.00
34921;BME280;21128;50.016;20.002;2022-11-02T06:33:23;99397.72;;;10.61;100.00
34921;BME280;21128;50.016;20.002;2022-11-02T06:35:51;99398.93;;;10.78;100.00
34921;BME280;21128;50.016;20.002;2022-11-02T06:38:25;99395.74;;;11.05;100.00
34921;BME280;21128;50.016;20.002;2022-11-02T06:41:02;99397.78;;;11.32;100.00
34921;BME280;21128;50.016;20.002;2022-11-02T06:43:32;99392.34;;;11.64;100.00
34921;BME280;21128;50.016;20.002;2022-11-02T06:46:06;99388.25;;;11.91;100.00
34921;BME280;21128;50.016;20.002;2022-11-02T06:48:33;99395.62;;;12.16;100.00
34921;BME280;21128;50.016;20.002;2022-11-02T06:51:01;99399.93;;;12.36;100.00
34921;BME280;21128;50.016;20.002;2022-11-02T06:53:34;99402.95;;;12.51;100.00
34921;BME280;21128;50.016;20.002;2022-11-02T06:56:01;99400.20;;;12.53;100.00
34921;BME280;21128;50.016;20.002;2022-11-02T06:58:28;99400.89;;;12.45;100.00
34921;BME280;21128;50.016;20.002;2022-11-02T07:00:58;99402.42;;;12.38;100.00
34921;BME280;21128;50.016;20.002;2022-11-02T07:03:25;99401.58;;;12.47;100.00
34921;BME280;21128;50.016;20.002;2022-11-02T07:05:53;99397.80;;;12.59;100.00
34921;BME280;21128;50.016;20.002;2022-11-02T07:08:20;99399.17;;;12.73;100.00
34921;BME280;21128;50.016;20.002;2022-11-02T07:10:48;99400.98;;;12.73;100.00
34921;BME280;21128;50.016;20.002;2022-11-02T07:13:15;99403.49;;;12.64;100.00
34921;BME280;21128;50.016;20.002;2022-11-02T07:15:53;99401.70;;;12.55;100.00
34921;BME280;21128;50.016;20.002;2022-11-02T07:18:22;99408.09;;;12.62;100.00
34921;BME280;21128;50.016;20.002;2022-11-02T07:20:49;99406.79;;;12.76;100.00
34921;BME280;21128;50.016;20.002;2022-11-02T07:23:16;99403.71;;;12.90;100.00
34921;BME280;21128;50.016;20.002;2022-11-02T07:25:43;99407.71;;;13.04;100.00
34921;BME280;21128;50.016;20.002;2022-11-02T07:28:15;99396.78;;;12.89;100.00
34921;BME280;21128;50.016;20.002;2022-11-02T07:30:42;99395.03;;;12.71;100.00
34921;BME280;21128;50.016;20.002;2022-11-02T07:33:09;99392.02;;;12.46;100.00
34921;BME280;21128;50.016;20.002;2022-11-02T07:35:37;99388.42;;;12.28;100.00
34921;BME280;21128;50.016;20.002;2022-11-02T07:38:05;99388.69;;;12.15;100.00
34921;BME280;21128;50.016;20.002;2022-11-02T07:40:34;99391.06;;;12.28;100.00
34921;BME280;21128;50.016;20.002;2022-11-02T07:43:07;99395.19;;;12.50;100.00
34921;BME280;21128;50.016;20.002;2022-11-02T07:45:34;99394.70;;;12.83;100.00
34921;BME280;21128;50.016;20.002;2022-11-02T07:48:07;99402.24;;;13.15;100.00
34921;BME280;21128;50.016;20.002;2022-11-02T07:50:34;99389.19;;;13.23;100.00
34921;BME280;21128;50.016;20.002;2022-11-02T07:53:01;99391.37;;;13.28;100.00
34921;BME280;21128;50.016;20.002;2022-11-02T07:55:29;99387.08;;;13.27;100.00
34921;BME280;21128;50.016;20.002;2022-11-02T07:58:09;99383.38;;;13.47;100.00
34921;BME280;21128;50.016;20.002;2022-11-02T08:00:38;99390.20;;;13.68;100.00
34921;BME280;21128;50.016;20.002;2022-11-02T08:03:12;99395.67;;;14.02;100.00
34921;BME280;21128;50.016;20.002;2022-11-02T08:05:41;99388.78;;;14.45;100.00
34921;BME280;21128;50.016;20.002;2022-11-02T08:08:16;99389.42;;;14.82;100.00
34921;BME280;21128;50.016;20.002;2022-11-02T08:10:45;99390.90;;;15.11;100.00
34921;BME280;21128;50.016;20.002;2022-11-02T08:13:15;99397.23;;;15.18;100.00
34921;BME280;21128;50.016;20.002;2022-11-02T08:15:43;99390.56;;;15.06;100.00
34921;BME280;21128;50.016;20.002;2022-11-02T08:18:16;99393.16;;;14.98;100.00
34921;BME280;21128;50.016;20.002;2022-11-02T08:20:43;99394.77;;;14.90;100.00
34921;BME280;21128;50.016;20.002;2022-11-02T08:23:15;99401.77;;;15.00;100.00
34921;BME280;21128;50.016;20.002;2022-11-02T08:25:44;99390.44;;;15.15;100.00
34921;BME280;21128;50.016;20.002;2022-11-02T08:28:21;99386.39;;;15.37;100.00
34921;BME280;21128;50.016;20.002;2022-11-02T08:30:48;99392.25;;;15.49;100.00
34921;BME280;21128;50.016;20.002;2022-11-02T08:33:17;99374.14;;;15.79;100.00
34921;BME280;21128;50.016;20.002;2022-11-02T08:35:45;99381.68;;;16.40;100.00
34921;BME280;21128;50.016;20.002;2022-11-02T08:38:13;99378.67;;;16.59;100.00
34921;BME280;21128;50.016;20.002;2022-11-02T08:40:48;99376.98;;;16.99;100.00
34921;BME280;21128;50.016;20.002;2022-11-02T08:43:15;99384.97;;;16.91;98.30
34921;BME280;21128;50.016;20.002;2022-11-02T08:45:43;99376.98;;;16.99;100.00
34921;BME280;21128;50.016;20.002;2022-11-02T08:48:12;99370.74;;;17.23;100.00
34921;BME280;21128;50.016;20.002;2022-11-02T08:50:47;99370.31;;;17.51;99.99
34921;BME280;21128;50.016;20.002;2022-11-02T08:53:15;99374.13;;;17.48;98.18
34921;BME280;21128;50.016;20.002;2022-11-02T08:55:42;99378.20;;;17.75;100.00
34921;BME280;21128;50.016;20.002;2022-11-02T08:58:09;99368.94;;;17.94;97.00
34921;BME280;21128;50.016;20.002;2022-11-02T09:00:37;99385.49;;;17.73;93.18
34921;BME280;21128;50.016;20.002;2022-11-02T09:05:35;99370.73;;;17.70;95.26
34921;BME280;21128;50.016;20.002;2022-11-02T09:08:05;99369.34;;;17.83;95.06
34921;BME280;21128;50.016;20.002;2022-11-02T09:10:34;99369.58;;;17.96;95.73
34921;BME280;21128;50.016;20.002;2022-11-02T09:13:03;99372.31;;;18.11;95.73
34921;BME280;21128;50.016;20.002;2022-11-02T09:15:37;99376.55;;;18.43;94.95
34921;BME280;21128;50.016;20.002;2022-11-02T09:18:05;99375.30;;;18.31;91.72
34921;BME280;21128;50.016;20.002;2022-11-02T09:20:33;99373.22;;;18.41;91.76
34921;BME280;21128;50.016;20.002;2022-11-02T09:23:00;99374.46;;;18.53;93.09
34921;BME280;21128;50.016;20.002;2022-11-02T09:25:27;99367.75;;;18.57;91.77
34921;BME280;21128;50.016;20.002;2022-11-02T09:28:01;99365.45;;;18.77;92.17
34921;BME280;21128;50.016;20.002;2022-11-02T09:30:28;99363.62;;;19.07;92.89
34921;BME280;21128;50.016;20.002;2022-11-02T09:32:57;99363.23;;;19.39;93.54
34921;BME280;21128;50.016;20.002;2022-11-02T09:35:26;99360.00;;;19.59;90.15
34921;BME280;21128;50.016;20.002;2022-11-02T09:37:53;99358.20;;;19.59;89.98
34921;BME280;21128;50.016;20.002;2022-11-02T09:40:30;99361.59;;;19.89;91.86
34921;BME280;21128;50.016;20.002;2022-11-02T09:45:52;99364.64;;;20.08;85.92
34921;BME280;21128;50.016;20.002;2022-11-02T09:51:15;99360.58;;;19.25;87.43
34921;BME280;21128;50.016;20.002;2022-11-02T09:53:51;99351.13;;;19.22;88.27
34921;BME280;21128;50.016;20.002;2022-11-02T09:56:20;99368.13;;;19.06;87.74
34921;BME280;21128;50.016;20.002;2022-11-02T09:58:58;99362.91;;;18.61;85.59
34921;BME280;21128;50.016;20.002;2022-11-02T10:07:08;99348.34;;;17.57;87.72
34921;BME280;21128;50.016;20.002;2022-11-02T10:09:53;99343.97;;;17.41;89.00
34921;BME280;21128;50.016;20.002;2022-11-02T10:12:25;99345.69;;;17.26;88.00
34921;BME280;21128;50.016;20.002;2022-11-02T10:15:24;99354.01;;;17.14;88.07
34921;BME280;21128;50.016;20.002;2022-11-02T10:17:55;99343.39;;;17.14;88.65
34921;BME280;21128;50.016;20.002;2022-11-02T10:20:37;99342.30;;;17.01;88.91
34921;BME280;21128;50.016;20.002;2022-11-02T10:23:08;99342.99;;;16.86;89.29
34921;BME280;21128;50.016;20.002;2022-11-02T10:25:37;99342.85;;;16.72;89.74
34921;BME280;21128;50.016;20.002;2022-11-02T10:28:22;99335.05;;;16.62;88.75
34921;BME280;21128;50.016;20.002;2022-11-02T10:30:52;99336.88;;;16.61;89.45
34921;BME280;21128;50.016;20.002;2022-11-02T10:33:26;99329.92;;;16.60;89.73
34921;BME280;21128;50.016;20.002;2022-11-02T10:42:13;99320.95;;;16.61;89.56
34921;BME280;21128;50.016;20.002;2022-11-02T10:47:32;99324.61;;;16.60;89.66
34921;BME280;21128;50.016;20.002;2022-11-02T10:53:01;99329.25;;;16.67;90.03
34921;BME280;21128;50.016;20.002;2022-11-02T10:55:35;99336.89;;;16.70;90.32
34921;BME280;21128;50.016;20.002;2022-11-02T10:58:05;99326.93;;;16.72;89.32
34921;BME280;21128;50.016;20.002;2022-11-02T11:00:35;99336.21;;;16.68;89.98
34921;BME280;21128;50.016;20.002;2022-11-02T11:03:11;99323.44;;;16.63;89.76
34921;BME280;21128;50.016;20.002;2022-11-02T11:05:54;99321.12;;;16.68;89.22
34921;BME280;21128;50.016;20.002;2022-11-02T11:10:53;99321.76;;;16.86;87.95
34921;BME280;21128;50.016;20.002;2022-11-02T11:13:22;99327.05;;;16.95;88.35
34921;BME280;21128;50.016;20.002;2022-11-02T11:15:50;99327.48;;;17.06;88.00
34921;BME280;21128;50.016;20.002;2022-11-02T11:18:19;99322.17;;;17.06;88.20
34921;BME280;21128;50.016;20.002;2022-11-02T11:20:47;99321.35;;;17.06;88.24
34921;BME280;21128;50.016;20.002;2022-11-02T11:23:24;99316.87;;;17.06;88.33
34921;BME280;21128;50.016;20.002;2022-11-02T11:26:03;99316.58;;;17.01;87.59
34921;BME280;21128;50.016;20.002;2022-11-02T11:28:54;99312.59;;;16.97;88.24
34921;BME280;21128;50.016;20.002;2022-11-02T11:31:22;99321.27;;;16.91;86.54
34921;BME280;21128;50.016;20.002;2022-11-02T11:33:54;99314.47;;;16.80;86.04
34921;BME280;21128;50.016;20.002;2022-11-02T11:36:24;99313.17;;;16.76;85.66
34921;BME280;21128;50.016;20.002;2022-11-02T11:39:06;99309.69;;;16.76;85.89
34921;BME280;21128;50.016;20.002;2022-11-02T11:41:40;99309.98;;;16.81;86.11
34921;BME280;21128;50.016;20.002;2022-11-02T11:44:12;99306.19;;;16.83;85.89
34921;BME280;21128;50.016;20.002;2022-11-02T11:46:46;99313.33;;;16.83;85.42
34921;BME280;21128;50.016;20.002;2022-11-02T11:49:33;99314.15;;;16.83;85.66
34921;BME280;21128;50.016;20.002;2022-11-02T11:52:02;99310.49;;;16.84;84.30
34921;BME280;21128;50.016;20.002;2022-11-02T11:54:31;99314.47;;;16.80;83.97
34921;BME280;21128;50.016;20.002;2022-11-02T11:57:21;99319.95;;;16.79;84.19
34921;BME280;21128;50.016;20.002;2022-11-02T11:59:50;99306.50;;;16.80;83.57
34921;BME280;21128;50.016;20.002;2022-11-02T12:02:22;99312.52;;;16.74;84.47
34921;BME280;21128;50.016;20.002;2022-11-02T12:04:51;99306.69;;;16.63;84.31
34921;BME280;21128;50.016;20.002;2022-11-02T12:10:17;99318.33;;;16.45;83.80
34921;BME280;21128;50.016;20.002;2022-11-02T12:23:44;99307.34;;;16.65;82.86
34921;BME280;21128;50.016;20.002;2022-11-02T12:40:47;99292.47;;;16.39;82.61
34921;BME280;21128;50.016;20.002;2022-11-02T12:43:41;99288.99;;;16.39;82.55
34921;BME280;21128;50.016;20.002;2022-11-02T12:46:20;99292.64;;;16.38;81.93
34921;BME280;21128;50.016;20.002;2022-11-02T12:52:38;99287.52;;;16.36;82.62
34921;BME280;21128;50.016;20.002;2022-11-02T12:55:14;99289.16;;;16.37;81.47
34921;BME280;21128;50.016;20.002;2022-11-02T12:57:43;99289.52;;;16.34;82.72
34921;BME280;21128;50.016;20.002;2022-11-02T13:00:20;99290.34;;;16.35;82.54
34921;BME280;21128;50.016;20.002;2022-11-02T13:05:48;99295.47;;;16.36;82.87
34921;BME280;21128;50.016;20.002;2022-11-02T13:08:48;99296.11;;;16.46;81.68
34921;BME280;21128;50.016;20.002;2022-11-02T13:11:41;99289.79;;;16.55;81.91
34921;BME280;21128;50.016;20.002;2022-11-02T13:14:18;99295.44;;;16.69;82.55
34921;BME280;21128;50.016;20.002;2022-11-02T13:16:52;99289.78;;;16.72;82.24
34921;BME280;21128;50.016;20.002;2022-11-02T13:19:46;99284.98;;;16.75;82.99
34921;BME280;21128;50.016;20.002;2022-11-02T13:22:17;99276.99;;;16.83;82.01
34921;BME280;21128;50.016;20.002;2022-11-02T13:24:49;99283.59;;;16.87;81.76
34921;BME280;21128;50.016;20.002;2022-11-02T13:27:26;99274.34;;;16.83;81.98
34921;BME280;21128;50.016;20.002;2022-11-02T13:30:14;99295.24;;;16.78;79.22
34921;BME280;21128;50.016;20.002;2022-11-02T13:32:58;99285.45;;;16.79;74.39
34921;BME280;21128;50.016;20.002;2022-11-02T13:35:38;99290.28;;;16.75;74.62
34921;BME280;21128;50.016;20.002;2022-11-02T13:38:29;99296.25;;;16.77;74.73
34921;BME280;21128;50.016;20.002;2022-11-02T13:46:52;99289.45;;;16.67;73.59
34921;BME280;21128;50.016;20.002;2022-11-02T13:49:36;99279.52;;;16.60;73.13
34921;BME280;21128;50.016;20.002;2022-11-02T13:52:25;99288.47;;;16.59;73.17
34921;BME280;21128;50.016;20.002;2022-11-02T13:55:00;99300.41;;;16.55;72.00
34921;BME280;21128;50.016;20.002;2022-11-02T13:57:45;99298.92;;;16.53;72.52
34921;BME280;21128;50.016;20.002;2022-11-02T14:05:44;99296.63;;;16.42;74.70
34921;BME280;21128;50.016;20.002;2022-11-02T14:14:05;99308.57;;;16.21;74.97
34921;BME280;21128;50.016;20.002;2022-11-02T14:16:44;99307.26;;;16.17;75.80
34921;BME280;21128;50.016;20.002;2022-11-02T14:19:24;99305.78;;;16.15;76.50
34921;BME280;21128;50.016;20.002;2022-11-02T14:38:03;99305.08;;;15.88;78.30
34921;BME280;21128;50.016;20.002;2022-11-02T14:48:58;99311.81;;;15.58;80.85
34921;BME280;21128;50.016;20.002;2022-11-02T14:51:36;99313.62;;;15.49;80.73
34921;BME280;21128;50.016;20.002;2022-11-02T14:54:16;99318.89;;;15.41;81.21
34921;BME280;21128;50.016;20.002;2022-11-02T14:57:05;99313.58;;;15.33;81.29
34921;BME280;21128;50.016;20.002;2022-11-02T14:59:44;99317.84;;;15.26;81.52
34921;BME280;21128;50.016;20.002;2022-11-02T15:02:32;99317.81;;;15.18;81.67
34921;BME280;21128;50.016;20.002;2022-11-02T15:05:03;99323.08;;;15.10;82.13
34921;BME280;21128;50.016;20.002;2022-11-02T15:07:41;99320.23;;;15.03;82.42
34921;BME280;21128;50.016;20.002;2022-11-02T15:12:43;99316.25;;;14.99;82.43
34921;BME280;21128;50.016;20.002;2022-11-02T15:20:26;99321.58;;;14.73;83.64
34921;BME280;21128;50.016;20.002;2022-11-02T15:23:02;99330.13;;;14.67;83.80
34921;BME280;21128;50.016;20.002;2022-11-02T15:25:36;99331.58;;;14.61;84.22
34921;BME280;21128;50.016;20.002;2022-11-02T15:28:22;99327.89;;;14.54;84.16
34921;BME280;21128;50.016;20.002;2022-11-02T15:30:52;99330.19;;;14.49;84.75
34921;BME280;21128;50.016;20.002;2022-11-02T15:33:37;99334.40;;;14.42;84.62
34921;BME280;21128;50.016;20.002;2022-11-02T15:36:07;99335.84;;;14.36;84.69
34921;BME280;21128;50.016;20.002;2022-11-02T15:38:38;99331.19;;;14.30;85.17
34921;BME280;21128;50.016;20.002;2022-11-02T16:01:20;99363.06;;;13.93;87.33